sensor_id;sensor_type;location;lat;lon;timestamp;P1;durP1;ratioP1;P2;durP2;ratioP2
79348;SDS011;68817;48.110;11.660;2024-03-06T00:01:37;18.92;;;9.55;;
79348;SDS011;68817;48.110;11.660;2024-03-06T00:04:03;18.13;;;10.18;;
79348;SDS011;68817;48.110;11.660;2024-03-06T00:06:29;18.75;;;9.98;;
79348;SDS011;68817;48.110;11.660;2024-03-06T00:08:55;18.45;;;10.00;;
79348;SDS011;68817;48.110;11.660;2024-03-06T00:11:21;21.85;;;10.88;;
79348;SDS011;68817;48.110;11.660;2024-03-06T00:13:46;18.23;;;10.10;;
79348;SDS011;68817;48.110;11.660;2024-03-06T00:16:13;22.65;;;10.95;;
79348;SDS011;68817;48.110;11.660;2024-03-06T00:18:38;17.80;;;10.18;;
79348;SDS011;68817;48.110;11.660;2024-03-06T00:21:05;16.20;;;9.52;;
79348;SDS011;68817;48.110;11.660;2024-03-06T00:23:31;17.17;;;10.07;;
79348;SDS011;68817;48.110;11.660;2024-03-06T00:25:57;17.90;;;10.82;;
79348;SDS011;68817;48.110;11.660;2024-03-06T00:28:22;16.55;;;9.32;;
79348;SDS011;68817;48.110;11.660;2024-03-06T00:30:49;16.23;;;9.82;;
79348;SDS011;68817;48.110;11.660;2024-03-06T00:33:14;18.88;;;9.75;;
79348;SDS011;68817;48.110;11.660;2024-03-06T00:35:40;16.70;;;10.07;;
79348;SDS011;68817;48.110;11.660;2024-03-06T00:38:05;15.15;;;9.73;;
79348;SDS011;68817;48.110;11.660;2024-03-06T00:40:31;16.27;;;9.55;;
79348;SDS011;68817;48.110;11.660;2024-03-06T00:42:57;16.38;;;9.45;;
79348;SDS011;68817;48.110;11.660;2024-03-06T00:45:23;15.73;;;9.25;;
79348;SDS011;68817;48.110;11.660;2024-03-06T00:47:48;16.80;;;10.05;;
79348;SDS011;68817;48.110;11.660;2024-03-06T00:50:14;16.35;;;9.15;;
79348;SDS011;68817;48.110;11.660;2024-03-06T00:52:41;16.48;;;9.65;;
79348;SDS011;68817;48.110;11.660;2024-03-06T00:55:07;17.10;;;9.10;;
79348;SDS011;68817;48.110;11.660;2024-03-06T00:57:33;14.73;;;9.40;;
79348;SDS011;68817;48.110;11.660;2024-03-06T00:59:59;16.50;;;9.65;;
79348;SDS011;68817;48.110;11.660;2024-03-06T01:02:24;18.80;;;9.73;;
79348;SDS011;68817;48.110;11.660;2024-03-06T01:04:50;16.58;;;9.02;;
79348;SDS011;68817;48.110;11.660;2024-03-06T01:07:15;15.75;;;9.30;;
79348;SDS011;68817;48.110;11.660;2024-03-06T01:09:41;17.48;;;9.85;;
79348;SDS011;68817;48.110;11.660;2024-03-06T01:12:06;16.02;;;9.93;;
79348;SDS011;68817;48.110;11.660;2024-03-06T01:14:31;17.60;;;9.70;;
79348;SDS011;68817;48.110;11.660;2024-03-06T01:16:57;15.55;;;8.65;;
79348;SDS011;68817;48.110;11.660;2024-03-06T01:19:23;14.85;;;8.55;;
79348;SDS011;68817;48.110;11.660;2024-03-06T01:21:48;18.77;;;10.40;;
79348;SDS011;68817;48.110;11.660;2024-03-06T01:24:14;16.08;;;9.00;;
79348;SDS011;68817;48.110;11.660;2024-03-06T01:26:39;16.33;;;8.93;;
79348;SDS011;68817;48.110;11.660;2024-03-06T01:29:06;18.98;;;10.10;;
79348;SDS011;68817;48.110;11.660;2024-03-06T01:31:31;18.98;;;10.30;;
79348;SDS011;68817;48.110;11.660;2024-03-06T01:33:56;16.85;;;9.50;;
79348;SDS011;68817;48.110;11.660;2024-03-06T01:36:22;15.38;;;10.02;;
79348;SDS011;68817;48.110;11.660;2024-03-06T01:38:47;18.50;;;10.20;;
79348;SDS011;68817;48.110;11.660;2024-03-06T01:41:13;18.67;;;9.98;;
79348;SDS011;68817;48.110;11.660;2024-03-06T01:43:39;17.30;;;9.77;;
79348;SDS011;68817;48.110;11.660;2024-03-06T01:46:05;20.05;;;10.57;;
79348;SDS011;68817;48.110;11.660;2024-03-06T01:48:31;18.85;;;10.52;;
79348;SDS011;68817;48.110;11.660;2024-03-06T01:50:57;19.02;;;9.70;;
79348;SDS011;68817;48.110;11.660;2024-03-06T01:53:26;18.30;;;10.77;;
79348;SDS011;68817;48.110;11.660;2024-03-06T01:55:52;19.20;;;9.90;;
79348;SDS011;68817;48.110;11.660;2024-03-06T01:58:17;19.98;;;10.65;;
79348;SDS011;68817;48.110;11.660;2024-03-06T02:00:43;19.90;;;10.55;;
79348;SDS011;68817;48.110;11.660;2024-03-06T02:03:09;20.45;;;11.02;;
79348;SDS011;68817;48.110;11.660;2024-03-06T02:05:34;18.95;;;10.85;;
79348;SDS011;68817;48.110;11.660;2024-03-06T02:08:00;21.50;;;11.10;;
79348;SDS011;68817;48.110;11.660;2024-03-06T02:10:26;19.58;;;11.32;;
79348;SDS011;68817;48.110;11.660;2024-03-06T02:12:52;21.13;;;9.88;;
79348;SDS011;68817;48.110;11.660;2024-03-06T02:15:19;22.75;;;10.90;;
79348;SDS011;68817;48.110;11.660;2024-03-06T02:17:44;20.83;;;10.98;;
79348;SDS011;68817;48.110;11.660;2024-03-06T02:20:11;20.38;;;10.50;;
79348;SDS011;68817;48.110;11.660;2024-03-06T02:22:38;23.65;;;11.10;;
79348;SDS011;68817;48.110;11.660;2024-03-06T02:25:04;18.95;;;10.02;;
79348;SDS011;68817;48.110;11.660;2024-03-06T02:27:31;20.85;;;10.93;;
79348;SDS011;68817;48.110;11.660;2024-03-06T02:29:57;20.67;;;9.38;;
79348;SDS011;68817;48.110;11.660;2024-03-06T02:32:23;19.02;;;9.80;;
79348;SDS011;68817;48.110;11.660;2024-03-06T02:34:49;21.67;;;10.25;;
79348;SDS011;68817;48.110;11.660;2024-03-06T02:37:15;18.90;;;9.55;;
79348;SDS011;68817;48.110;11.660;2024-03-06T02:39:41;7.45;;;4.00;;
79348;SDS011;68817;48.110;11.660;2024-03-06T02:42:06;2.58;;;1.60;;
79348;SDS011;68817;48.110;11.660;2024-03-06T02:44:32;2.30;;;1.40;;
79348;SDS011;68817;48.110;11.660;2024-03-06T02:46:58;1.67;;;1.25;;
79348;SDS011;68817;48.110;11.660;2024-03-06T02:49:24;2.00;;;1.42;;
79348;SDS011;68817;48.110;11.660;2024-03-06T02:51:50;3.83;;;1.77;;
79348;SDS011;68817;48.110;11.660;2024-03-06T02:54:15;3.38;;;1.70;;
79348;SDS011;68817;48.110;11.660;2024-03-06T02:56:41;2.55;;;1.60;;
79348;SDS011;68817;48.110;11.660;2024-03-06T02:59:07;1.83;;;1.15;;
79348;SDS011;68817;48.110;11.660;2024-03-06T03:01:32;2.47;;;1.30;;
79348;SDS011;68817;48.110;11.660;2024-03-06T03:03:58;2.30;;;1.30;;
79348;SDS011;68817;48.110;11.660;2024-03-06T03:06:23;1.38;;;1.00;;
79348;SDS011;68817;48.110;11.660;2024-03-06T03:08:49;1.90;;;1.10;;
79348;SDS011;68817;48.110;11.660;2024-03-06T03:11:14;1.90;;;1.02;;
79348;SDS011;68817;48.110;11.660;2024-03-06T03:13:40;1.65;;;1.00;;
79348;SDS011;68817;48.110;11.660;2024-03-06T03:16:06;2.33;;;1.25;;
79348;SDS011;68817;48.110;11.660;2024-03-06T03:18:32;2.25;;;1.33;;
79348;SDS011;68817;48.110;11.660;2024-03-06T03:20:57;2.10;;;1.33;;
79348;SDS011;68817;48.110;11.660;2024-03-06T03:23:23;1.85;;;1.40;;
79348;SDS011;68817;48.110;11.660;2024-03-06T03:25:48;2.10;;;1.45;;
79348;SDS011;68817;48.110;11.660;2024-03-06T03:28:14;1.48;;;1.08;;
79348;SDS011;68817;48.110;11.660;2024-03-06T03:30:39;2.20;;;1.38;;
79348;SDS011;68817;48.110;11.660;2024-03-06T03:33:05;2.63;;;1.40;;
79348;SDS011;68817;48.110;11.660;2024-03-06T03:35:30;2.17;;;1.48;;
79348;SDS011;68817;48.110;11.660;2024-03-06T03:37:56;2.83;;;1.40;;
79348;SDS011;68817;48.110;11.660;2024-03-06T03:40:22;2.10;;;1.38;;
79348;SDS011;68817;48.110;11.660;2024-03-06T03:42:48;1.95;;;1.15;;
79348;SDS011;68817;48.110;11.660;2024-03-06T03:45:13;2.28;;;1.40;;
79348;SDS011;68817;48.110;11.660;2024-03-06T03:47:39;2.20;;;1.30;;
79348;SDS011;68817;48.110;11.660;2024-03-06T03:50:05;2.05;;;1.25;;
79348;SDS011;68817;48.110;11.660;2024-03-06T03:52:31;2.10;;;1.40;;
79348;SDS011;68817;48.110;11.660;2024-03-06T03:54:56;2.30;;;1.38;;
79348;SDS011;68817;48.110;11.660;2024-03-06T03:57:22;2.28;;;1.33;;
79348;SDS011;68817;48.110;11.660;2024-03-06T03:59:47;2.13;;;1.50;;
79348;SDS011;68817;48.110;11.660;2024-03-06T04:02:12;2.53;;;1.50;;
79348;SDS011;68817;48.110;11.660;2024-03-06T04:04:38;2.30;;;1.60;;
79348;SDS011;68817;48.110;11.660;2024-03-06T04:07:03;2.97;;;1.42;;
79348;SDS011;68817;48.110;11.660;2024-03-06T04:09:31;2.33;;;1.60;;
79348;SDS011;68817;48.110;11.660;2024-03-06T04:12:00;2.78;;;1.83;;
79348;SDS011;68817;48.110;11.660;2024-03-06T04:14:26;2.05;;;1.40;;
79348;SDS011;68817;48.110;11.660;2024-03-06T04:16:51;2.45;;;1.65;;
79348;SDS011;68817;48.110;11.660;2024-03-06T04:19:17;2.38;;;1.42;;
79348;SDS011;68817;48.110;11.660;2024-03-06T04:21:43;2.08;;;1.23;;
79348;SDS011;68817;48.110;11.660;2024-03-06T04:24:09;2.13;;;1.33;;
79348;SDS011;68817;48.110;11.660;2024-03-06T04:26:34;3.40;;;1.63;;
79348;SDS011;68817;48.110;11.660;2024-03-06T04:29:00;2.58;;;1.45;;
79348;SDS011;68817;48.110;11.660;2024-03-06T04:31:25;3.58;;;1.60;;
79348;SDS011;68817;48.110;11.660;2024-03-06T04:33:50;2.13;;;1.50;;
79348;SDS011;68817;48.110;11.660;2024-03-06T04:36:16;2.15;;;1.50;;
79348;SDS011;68817;48.110;11.660;2024-03-06T04:38:42;2.15;;;1.45;;
79348;SDS011;68817;48.110;11.660;2024-03-06T04:41:07;2.30;;;1.35;;
79348;SDS011;68817;48.110;11.660;2024-03-06T04:43:33;2.45;;;1.50;;
79348;SDS011;68817;48.110;11.660;2024-03-06T04:45:58;2.15;;;1.35;;
79348;SDS011;68817;48.110;11.660;2024-03-06T04:48:23;2.03;;;1.55;;
79348;SDS011;68817;48.110;11.660;2024-03-06T04:50:49;1.50;;;1.17;;
79348;SDS011;68817;48.110;11.660;2024-03-06T04:53:15;1.80;;;1.30;;
79348;SDS011;68817;48.110;11.660;2024-03-06T04:55:40;1.95;;;1.45;;
79348;SDS011;68817;48.110;11.660;2024-03-06T04:58:06;2.03;;;1.40;;
79348;SDS011;68817;48.110;11.660;2024-03-06T05:00:31;1.70;;;1.30;;
79348;SDS011;68817;48.110;11.660;2024-03-06T05:02:57;2.80;;;1.85;;
79348;SDS011;68817;48.110;11.660;2024-03-06T05:05:23;2.17;;;1.58;;
79348;SDS011;68817;48.110;11.660;2024-03-06T05:07:48;2.40;;;1.60;;
79348;SDS011;68817;48.110;11.660;2024-03-06T05:10:14;2.10;;;1.33;;
79348;SDS011;68817;48.110;11.660;2024-03-06T05:12:41;2.28;;;1.40;;
79348;SDS011;68817;48.110;11.660;2024-03-06T05:15:06;2.03;;;1.52;;
79348;SDS011;68817;48.110;11.660;2024-03-06T05:17:33;1.90;;;1.13;;
79348;SDS011;68817;48.110;11.660;2024-03-06T05:19:59;2.28;;;1.40;;
79348;SDS011;68817;48.110;11.660;2024-03-06T05:22:24;2.08;;;1.35;;
79348;SDS011;68817;48.110;11.660;2024-03-06T05:24:49;2.03;;;1.50;;
79348;SDS011;68817;48.110;11.660;2024-03-06T05:27:15;2.53;;;1.60;;
79348;SDS011;68817;48.110;11.660;2024-03-06T05:29:42;1.90;;;1.27;;
79348;SDS011;68817;48.110;11.660;2024-03-06T05:32:08;1.77;;;1.33;;
79348;SDS011;68817;48.110;11.660;2024-03-06T05:34:34;2.10;;;1.40;;
79348;SDS011;68817;48.110;11.660;2024-03-06T05:37:00;1.60;;;1.30;;
79348;SDS011;68817;48.110;11.660;2024-03-06T05:39:26;2.33;;;1.30;;
79348;SDS011;68817;48.110;11.660;2024-03-06T05:41:53;1.95;;;1.30;;
79348;SDS011;68817;48.110;11.660;2024-03-06T05:44:19;1.90;;;1.35;;
79348;SDS011;68817;48.110;11.660;2024-03-06T05:46:45;2.45;;;1.30;;
79348;SDS011;68817;48.110;11.660;2024-03-06T05:49:10;2.35;;;1.40;;
79348;SDS011;68817;48.110;11.660;2024-03-06T05:51:36;1.50;;;1.10;;
79348;SDS011;68817;48.110;11.660;2024-03-06T05:54:01;2.22;;;1.50;;
79348;SDS011;68817;48.110;11.660;2024-03-06T05:56:28;2.08;;;1.30;;
79348;SDS011;68817;48.110;11.660;2024-03-06T05:58:54;2.17;;;1.30;;
79348;SDS011;68817;48.110;11.660;2024-03-06T06:01:20;1.30;;;1.13;;
79348;SDS011;68817;48.110;11.660;2024-03-06T06:03:46;1.75;;;1.15;;
79348;SDS011;68817;48.110;11.660;2024-03-06T06:06:15;2.22;;;1.40;;
79348;SDS011;68817;48.110;11.660;2024-03-06T06:08:41;2.13;;;1.33;;
79348;SDS011;68817;48.110;11.660;2024-03-06T06:11:09;1.30;;;1.02;;
79348;SDS011;68817;48.110;11.660;2024-03-06T06:13:35;2.20;;;1.52;;
79348;SDS011;68817;48.110;11.660;2024-03-06T06:16:00;2.00;;;1.25;;
79348;SDS011;68817;48.110;11.660;2024-03-06T06:18:27;1.92;;;1.40;;
79348;SDS011;68817;48.110;11.660;2024-03-06T06:20:53;2.08;;;1.23;;
79348;SDS011;68817;48.110;11.660;2024-03-06T06:23:18;2.97;;;1.30;;
79348;SDS011;68817;48.110;11.660;2024-03-06T06:25:44;2.08;;;1.20;;
79348;SDS011;68817;48.110;11.660;2024-03-06T06:28:09;4.45;;;1.60;;
79348;SDS011;68817;48.110;11.660;2024-03-06T06:30:35;1.98;;;1.20;;
79348;SDS011;68817;48.110;11.660;2024-03-06T06:33:01;2.20;;;1.27;;
79348;SDS011;68817;48.110;11.660;2024-03-06T06:35:26;2.53;;;1.40;;
79348;SDS011;68817;48.110;11.660;2024-03-06T06:37:52;3.25;;;1.70;;
79348;SDS011;68817;48.110;11.660;2024-03-06T06:40:18;2.03;;;1.30;;
79348;SDS011;68817;48.110;11.660;2024-03-06T06:42:48;2.40;;;1.38;;
79348;SDS011;68817;48.110;11.660;2024-03-06T06:45:17;1.85;;;1.40;;
79348;SDS011;68817;48.110;11.660;2024-03-06T06:47:43;2.00;;;1.40;;
79348;SDS011;68817;48.110;11.660;2024-03-06T06:50:09;2.17;;;1.58;;
79348;SDS011;68817;48.110;11.660;2024-03-06T06:52:36;2.65;;;1.40;;
79348;SDS011;68817;48.110;11.660;2024-03-06T06:55:02;2.20;;;1.52;;
79348;SDS011;68817;48.110;11.660;2024-03-06T06:57:27;2.45;;;1.52;;
79348;SDS011;68817;48.110;11.660;2024-03-06T06:59:52;1.83;;;1.40;;
79348;SDS011;68817;48.110;11.660;2024-03-06T07:02:18;2.40;;;1.40;;
79348;SDS011;68817;48.110;11.660;2024-03-06T07:04:43;2.15;;;1.50;;
79348;SDS011;68817;48.110;11.660;2024-03-06T07:07:09;2.45;;;1.75;;
79348;SDS011;68817;48.110;11.660;2024-03-06T07:09:34;2.90;;;1.50;;
79348;SDS011;68817;48.110;11.660;2024-03-06T07:12:00;3.22;;;1.90;;
79348;SDS011;68817;48.110;11.660;2024-03-06T07:14:25;3.95;;;1.70;;
79348;SDS011;68817;48.110;11.660;2024-03-06T07:16:50;2.05;;;1.50;;
79348;SDS011;68817;48.110;11.660;2024-03-06T07:19:16;2.08;;;1.55;;
79348;SDS011;68817;48.110;11.660;2024-03-06T07:21:42;1.92;;;1.40;;
79348;SDS011;68817;48.110;11.660;2024-03-06T07:24:07;2.55;;;1.80;;
79348;SDS011;68817;48.110;11.660;2024-03-06T07:26:33;2.33;;;1.50;;
79348;SDS011;68817;48.110;11.660;2024-03-06T07:28:59;3.38;;;1.90;;
79348;SDS011;68817;48.110;11.660;2024-03-06T07:31:24;2.00;;;1.67;;
79348;SDS011;68817;48.110;11.660;2024-03-06T07:33:50;2.20;;;1.33;;
79348;SDS011;68817;48.110;11.660;2024-03-06T07:36:16;2.63;;;1.60;;
79348;SDS011;68817;48.110;11.660;2024-03-06T07:38:44;1.90;;;1.45;;
79348;SDS011;68817;48.110;11.660;2024-03-06T07:41:09;3.08;;;1.52;;
79348;SDS011;68817;48.110;11.660;2024-03-06T07:43:35;2.22;;;1.40;;
79348;SDS011;68817;48.110;11.660;2024-03-06T07:46:01;2.53;;;1.40;;
79348;SDS011;68817;48.110;11.660;2024-03-06T07:48:27;2.33;;;1.50;;
79348;SDS011;68817;48.110;11.660;2024-03-06T07:50:52;2.13;;;1.60;;
79348;SDS011;68817;48.110;11.660;2024-03-06T07:53:17;2.30;;;1.50;;
79348;SDS011;68817;48.110;11.660;2024-03-06T07:55:43;2.28;;;1.55;;
79348;SDS011;68817;48.110;11.660;2024-03-06T07:58:09;2.47;;;1.60;;
79348;SDS011;68817;48.110;11.660;2024-03-06T08:00:35;2.40;;;1.70;;
79348;SDS011;68817;48.110;11.660;2024-03-06T08:03:00;3.30;;;1.58;;
79348;SDS011;68817;48.110;11.660;2024-03-06T08:05:27;2.53;;;1.65;;
79348;SDS011;68817;48.110;11.660;2024-03-06T08:07:53;3.67;;;1.73;;
79348;SDS011;68817;48.110;11.660;2024-03-06T08:10:18;2.80;;;1.70;;
79348;SDS011;68817;48.110;11.660;2024-03-06T08:12:44;2.00;;;1.50;;
79348;SDS011;68817;48.110;11.660;2024-03-06T08:15:13;3.05;;;1.52;;
79348;SDS011;68817;48.110;11.660;2024-03-06T08:17:39;2.03;;;1.50;;
79348;SDS011;68817;48.110;11.660;2024-03-06T08:20:06;2.65;;;1.40;;
79348;SDS011;68817;48.110;11.660;2024-03-06T08:22:39;1.80;;;1.27;;
79348;SDS011;68817;48.110;11.660;2024-03-06T08:27:32;2.45;;;1.45;;
79348;SDS011;68817;48.110;11.660;2024-03-06T08:29:58;2.58;;;1.45;;
79348;SDS011;68817;48.110;11.660;2024-03-06T08:32:24;2.45;;;1.52;;
79348;SDS011;68817;48.110;11.660;2024-03-06T08:34:49;1.58;;;1.40;;
79348;SDS011;68817;48.110;11.660;2024-03-06T08:37:15;2.85;;;1.67;;
79348;SDS011;68817;48.110;11.660;2024-03-06T08:39:40;2.08;;;1.42;;
79348;SDS011;68817;48.110;11.660;2024-03-06T08:42:05;1.67;;;1.30;;
79348;SDS011;68817;48.110;11.660;2024-03-06T08:44:31;2.45;;;1.42;;
79348;SDS011;68817;48.110;11.660;2024-03-06T08:46:56;1.67;;;1.23;;
79348;SDS011;68817;48.110;11.660;2024-03-06T08:49:22;1.80;;;1.40;;
79348;SDS011;68817;48.110;11.660;2024-03-06T08:51:47;2.10;;;1.40;;
79348;SDS011;68817;48.110;11.660;2024-03-06T08:54:12;1.85;;;1.30;;
79348;SDS011;68817;48.110;11.660;2024-03-06T08:56:38;2.25;;;1.45;;
79348;SDS011;68817;48.110;11.660;2024-03-06T08:59:03;2.88;;;1.40;;
79348;SDS011;68817;48.110;11.660;2024-03-06T09:01:29;2.33;;;1.83;;
79348;SDS011;68817;48.110;11.660;2024-03-06T09:03:54;2.38;;;1.30;;
79348;SDS011;68817;48.110;11.660;2024-03-06T09:06:21;2.00;;;1.40;;
79348;SDS011;68817;48.110;11.660;2024-03-06T09:08:47;2.08;;;1.40;;
79348;SDS011;68817;48.110;11.660;2024-03-06T09:11:13;2.05;;;1.50;;
79348;SDS011;68817;48.110;11.660;2024-03-06T09:13:39;2.03;;;1.42;;
79348;SDS011;68817;48.110;11.660;2024-03-06T09:16:04;3.67;;;1.63;;
79348;SDS011;68817;48.110;11.660;2024-03-06T09:18:30;2.08;;;1.63;;
79348;SDS011;68817;48.110;11.660;2024-03-06T09:20:55;2.00;;;1.40;;
79348;SDS011;68817;48.110;11.660;2024-03-06T09:23:21;1.73;;;1.50;;
79348;SDS011;68817;48.110;11.660;2024-03-06T09:25:47;2.78;;;1.60;;
79348;SDS011;68817;48.110;11.660;2024-03-06T09:28:13;2.28;;;1.40;;
79348;SDS011;68817;48.110;11.660;2024-03-06T09:30:38;2.20;;;1.50;;
79348;SDS011;68817;48.110;11.660;2024-03-06T09:33:04;1.85;;;1.27;;
79348;SDS011;68817;48.110;11.660;2024-03-06T09:35:29;4.28;;;1.60;;
79348;SDS011;68817;48.110;11.660;2024-03-06T09:37:55;3.13;;;1.38;;
79348;SDS011;68817;48.110;11.660;2024-03-06T09:40:23;1.90;;;1.40;;
79348;SDS011;68817;48.110;11.660;2024-03-06T09:42:49;2.08;;;1.40;;
79348;SDS011;68817;48.110;11.660;2024-03-06T09:45:15;1.90;;;1.50;;
79348;SDS011;68817;48.110;11.660;2024-03-06T09:47:41;2.67;;;1.80;;
79348;SDS011;68817;48.110;11.660;2024-03-06T09:50:08;2.22;;;1.40;;
79348;SDS011;68817;48.110;11.660;2024-03-06T09:52:34;2.95;;;1.65;;
79348;SDS011;68817;48.110;11.660;2024-03-06T09:55:01;1.73;;;1.20;;
79348;SDS011;68817;48.110;11.660;2024-03-06T09:57:27;1.75;;;1.20;;
79348;SDS011;68817;48.110;11.660;2024-03-06T09:59:53;2.15;;;1.48;;
79348;SDS011;68817;48.110;11.660;2024-03-06T10:02:25;2.08;;;1.38;;
79348;SDS011;68817;48.110;11.660;2024-03-06T10:04:55;3.30;;;1.42;;
79348;SDS011;68817;48.110;11.660;2024-03-06T10:07:22;1.98;;;1.50;;
79348;SDS011;68817;48.110;11.660;2024-03-06T10:09:47;2.45;;;1.50;;
79348;SDS011;68817;48.110;11.660;2024-03-06T10:12:12;2.40;;;1.58;;
79348;SDS011;68817;48.110;11.660;2024-03-06T10:14:48;2.55;;;1.40;;
79348;SDS011;68817;48.110;11.660;2024-03-06T10:17:18;2.40;;;1.50;;
79348;SDS011;68817;48.110;11.660;2024-03-06T10:19:44;2.35;;;1.33;;
79348;SDS011;68817;48.110;11.660;2024-03-06T10:22:15;1.90;;;1.40;;
79348;SDS011;68817;48.110;11.660;2024-03-06T10:24:40;2.90;;;1.98;;
79348;SDS011;68817;48.110;11.660;2024-03-06T10:27:06;2.70;;;1.60;;
79348;SDS011;68817;48.110;11.660;2024-03-06T10:29:31;1.80;;;1.40;;
79348;SDS011;68817;48.110;11.660;2024-03-06T10:31:57;2.22;;;1.48;;
79348;SDS011;68817;48.110;11.660;2024-03-06T10:34:24;5.10;;;1.42;;
79348;SDS011;68817;48.110;11.660;2024-03-06T10:37:02;2.35;;;1.63;;
79348;SDS011;68817;48.110;11.660;2024-03-06T10:39:33;2.17;;;1.50;;
79348;SDS011;68817;48.110;11.660;2024-03-06T10:42:03;1.85;;;1.65;;
79348;SDS011;68817;48.110;11.660;2024-03-06T10:44:32;2.17;;;1.63;;
79348;SDS011;68817;48.110;11.660;2024-03-06T10:47:00;2.20;;;1.58;;
79348;SDS011;68817;48.110;11.660;2024-03-06T10:49:26;3.72;;;1.70;;
79348;SDS011;68817;48.110;11.660;2024-03-06T10:52:01;1.95;;;1.45;;
79348;SDS011;68817;48.110;11.660;2024-03-06T10:54:30;2.92;;;1.60;;
79348;SDS011;68817;48.110;11.660;2024-03-06T10:56:57;3.20;;;1.92;;
79348;SDS011;68817;48.110;11.660;2024-03-06T10:59:25;2.47;;;1.50;;
79348;SDS011;68817;48.110;11.660;2024-03-06T11:01:57;4.78;;;1.50;;
79348;SDS011;68817;48.110;11.660;2024-03-06T11:04:25;2.35;;;1.70;;
79348;SDS011;68817;48.110;11.660;2024-03-06T11:06:54;2.50;;;1.90;;
79348;SDS011;68817;48.110;11.660;2024-03-06T11:09:20;3.00;;;1.95;;
79348;SDS011;68817;48.110;11.660;2024-03-06T11:11:52;3.38;;;1.88;;
79348;SDS011;68817;48.110;11.660;2024-03-06T11:14:18;2.67;;;1.77;;
79348;SDS011;68817;48.110;11.660;2024-03-06T11:16:56;2.30;;;1.80;;
79348;SDS011;68817;48.110;11.660;2024-03-06T11:19:22;2.97;;;1.88;;
79348;SDS011;68817;48.110;11.660;2024-03-06T11:21:48;2.45;;;1.80;;
79348;SDS011;68817;48.110;11.660;2024-03-06T11:24:23;2.85;;;1.63;;
79348;SDS011;68817;48.110;11.660;2024-03-06T11:26:50;5.00;;;2.45;;
79348;SDS011;68817;48.110;11.660;2024-03-06T11:29:21;2.78;;;2.03;;
79348;SDS011;68817;48.110;11.660;2024-03-06T11:31:59;3.08;;;1.70;;
79348;SDS011;68817;48.110;11.660;2024-03-06T11:34:26;2.85;;;2.08;;
79348;SDS011;68817;48.110;11.660;2024-03-06T11:36:58;3.83;;;2.10;;
79348;SDS011;68817;48.110;11.660;2024-03-06T11:39:28;3.30;;;2.10;;
79348;SDS011;68817;48.110;11.660;2024-03-06T11:41:55;4.03;;;2.08;;
79348;SDS011;68817;48.110;11.660;2024-03-06T11:44:21;3.90;;;2.10;;
79348;SDS011;68817;48.110;11.660;2024-03-06T11:49:23;4.18;;;2.05;;
79348;SDS011;68817;48.110;11.660;2024-03-06T11:51:57;3.20;;;2.20;;
79348;SDS011;68817;48.110;11.660;2024-03-06T11:54:24;3.05;;;2.03;;
79348;SDS011;68817;48.110;11.660;2024-03-06T11:56:52;2.83;;;2.10;;
79348;SDS011;68817;48.110;11.660;2024-03-06T11:59:24;3.97;;;2.13;;
79348;SDS011;68817;48.110;11.660;2024-03-06T12:01:54;3.10;;;2.17;;
79348;SDS011;68817;48.110;11.660;2024-03-06T12:04:20;2.42;;;1.77;;
79348;SDS011;68817;48.110;11.660;2024-03-06T12:06:47;3.78;;;2.00;;
79348;SDS011;68817;48.110;11.660;2024-03-06T12:09:13;2.70;;;2.20;;
79348;SDS011;68817;48.110;11.660;2024-03-06T12:11:40;4.45;;;2.10;;
79348;SDS011;68817;48.110;11.660;2024-03-06T12:14:08;2.88;;;2.10;;
79348;SDS011;68817;48.110;11.660;2024-03-06T12:16:35;3.95;;;2.13;;
79348;SDS011;68817;48.110;11.660;2024-03-06T12:19:01;3.40;;;2.10;;
79348;SDS011;68817;48.110;11.660;2024-03-06T12:21:33;3.47;;;2.00;;
79348;SDS011;68817;48.110;11.660;2024-03-06T12:24:05;3.42;;;2.10;;
79348;SDS011;68817;48.110;11.660;2024-03-06T12:26:32;3.03;;;1.85;;
79348;SDS011;68817;48.110;11.660;2024-03-06T12:29:07;3.25;;;2.13;;
79348;SDS011;68817;48.110;11.660;2024-03-06T12:31:34;2.70;;;2.05;;
79348;SDS011;68817;48.110;11.660;2024-03-06T12:34:01;4.38;;;2.00;;
79348;SDS011;68817;48.110;11.660;2024-03-06T12:36:29;3.80;;;2.20;;
79348;SDS011;68817;48.110;11.660;2024-03-06T12:38:57;3.35;;;2.00;;
79348;SDS011;68817;48.110;11.660;2024-03-06T12:41:24;2.92;;;1.80;;
79348;SDS011;68817;48.110;11.660;2024-03-06T12:43:51;3.05;;;2.33;;
79348;SDS011;68817;48.110;11.660;2024-03-06T12:46:16;2.92;;;1.90;;
79348;SDS011;68817;48.110;11.660;2024-03-06T12:48:42;3.70;;;2.00;;
79348;SDS011;68817;48.110;11.660;2024-03-06T12:51:07;2.90;;;2.03;;
79348;SDS011;68817;48.110;11.660;2024-03-06T12:53:33;3.42;;;1.63;;
79348;SDS011;68817;48.110;11.660;2024-03-06T12:56:00;3.22;;;1.80;;
79348;SDS011;68817;48.110;11.660;2024-03-06T12:58:25;2.60;;;1.73;;
79348;SDS011;68817;48.110;11.660;2024-03-06T13:00:51;3.60;;;1.90;;
79348;SDS011;68817;48.110;11.660;2024-03-06T13:03:17;2.80;;;1.90;;
79348;SDS011;68817;48.110;11.660;2024-03-06T13:05:43;14.57;;;2.13;;
79348;SDS011;68817;48.110;11.660;2024-03-06T13:08:08;3.75;;;1.90;;
79348;SDS011;68817;48.110;11.660;2024-03-06T13:10:34;3.95;;;1.90;;
79348;SDS011;68817;48.110;11.660;2024-03-06T13:13:00;2.67;;;2.00;;
79348;SDS011;68817;48.110;11.660;2024-03-06T13:15:26;2.97;;;2.05;;
79348;SDS011;68817;48.110;11.660;2024-03-06T13:17:51;2.53;;;2.10;;
79348;SDS011;68817;48.110;11.660;2024-03-06T13:20:17;2.83;;;2.00;;
79348;SDS011;68817;48.110;11.660;2024-03-06T13:22:42;3.28;;;2.20;;
79348;SDS011;68817;48.110;11.660;2024-03-06T13:25:09;2.30;;;1.85;;
79348;SDS011;68817;48.110;11.660;2024-03-06T13:27:34;3.25;;;1.90;;
79348;SDS011;68817;48.110;11.660;2024-03-06T13:30:00;2.33;;;1.73;;
79348;SDS011;68817;48.110;11.660;2024-03-06T13:32:25;3.35;;;1.90;;
79348;SDS011;68817;48.110;11.660;2024-03-06T13:34:51;4.57;;;1.90;;
79348;SDS011;68817;48.110;11.660;2024-03-06T13:37:16;2.55;;;1.70;;
79348;SDS011;68817;48.110;11.660;2024-03-06T13:39:42;2.38;;;1.55;;
79348;SDS011;68817;48.110;11.660;2024-03-06T13:42:07;2.95;;;1.95;;
79348;SDS011;68817;48.110;11.660;2024-03-06T13:44:34;3.28;;;1.92;;
79348;SDS011;68817;48.110;11.660;2024-03-06T13:47:00;2.97;;;1.80;;
79348;SDS011;68817;48.110;11.660;2024-03-06T13:49:38;3.47;;;1.80;;
79348;SDS011;68817;48.110;11.660;2024-03-06T13:52:05;5.32;;;2.20;;
79348;SDS011;68817;48.110;11.660;2024-03-06T13:54:32;3.15;;;1.80;;
79348;SDS011;68817;48.110;11.660;2024-03-06T13:59:29;3.50;;;1.90;;
79348;SDS011;68817;48.110;11.660;2024-03-06T14:01:56;2.25;;;1.83;;
79348;SDS011;68817;48.110;11.660;2024-03-06T14:04:21;3.58;;;2.03;;
79348;SDS011;68817;48.110;11.660;2024-03-06T14:06:46;3.72;;;2.28;;
79348;SDS011;68817;48.110;11.660;2024-03-06T14:09:13;3.10;;;1.95;;
79348;SDS011;68817;48.110;11.660;2024-03-06T14:11:39;3.50;;;2.22;;
79348;SDS011;68817;48.110;11.660;2024-03-06T14:14:05;2.72;;;1.83;;
79348;SDS011;68817;48.110;11.660;2024-03-06T14:16:31;2.92;;;1.70;;
79348;SDS011;68817;48.110;11.660;2024-03-06T14:18:56;2.75;;;2.20;;
79348;SDS011;68817;48.110;11.660;2024-03-06T14:21:22;3.33;;;2.45;;
79348;SDS011;68817;48.110;11.660;2024-03-06T14:23:47;3.25;;;2.30;;
79348;SDS011;68817;48.110;11.660;2024-03-06T14:26:13;3.15;;;1.88;;
79348;SDS011;68817;48.110;11.660;2024-03-06T14:28:38;2.92;;;1.98;;
79348;SDS011;68817;48.110;11.660;2024-03-06T14:31:05;3.13;;;2.13;;
79348;SDS011;68817;48.110;11.660;2024-03-06T14:33:30;2.85;;;1.98;;